Time;durP1;ratioP1;P1;durP2;ratioP2;P2;SDS_P1;SDS_P2;PMS_P1;PMS_P2;Temp;Humidity;BMP_temperature;BMP_pressure;BME280_temperature;BME280_humidity;BME280_pressure;Samples;Min_cycle;Max_cycle;Signal;HPM_P1;HPM_P2
2022/09/04 00:01:33;;;;;;;0.73;0.73;;;16.20;99.90;;;;;;5039561;28;20420;-73
2022/09/04 00:04:20;;;;;;;1.40;0.93;;;16.20;99.90;;;;;;5038487;28;20041;-72
2022/09/04 00:07:13;;;;;;;2.38;1.00;;;16.20;99.90;;;;;;5038640;28;20037;-72
2022/09/04 00:09:48;;;;;;;1.42;0.80;;;16.10;99.90;;;;;;5038614;28;20396;-70
2022/09/04 00:12:16;;;;;;;1.58;0.80;;;16.10;99.90;;;;;;5021919;28;20132;-71
2022/09/04 00:14:50;;;;;;;0.95;0.85;;;16.10;99.90;;;;;;5038552;28;20037;-74
2022/09/04 00:17:33;;;;;;;1.48;0.90;;;16.10;99.90;;;;;;5021984;28;20047;-73
2022/09/04 00:20:26;;;;;;;0.88;0.80;;;16.00;1.00;;;;;;5038572;28;20480;-72
2022/09/04 00:22:57;;;;;;;1.13;0.90;;;16.00;1.00;;;;;;5021417;28;20048;-72
2022/09/04 00:25:37;;;;;;;1.80;1.00;;;16.00;1.00;;;;;;5037841;28;20032;-72
2022/09/04 00:28:29;;;;;;;1.40;0.90;;;16.10;1.00;;;;;;5021393;28;20041;-74
2022/09/04 00:31:24;;;;;;;2.47;1.20;;;16.00;1.00;;;;;;5037870;28;20037;-74
2022/09/04 00:34:09;;;;;;;1.50;0.98;;;16.00;1.00;;;;;;5011233;28;20103;-76
2022/09/04 00:36:39;;;;;;;1.63;0.90;;;15.90;99.70;;;;;;5037779;28;20045;-71
2022/09/04 00:39:16;;;;;;;0.90;0.80;;;15.90;99.90;;;;;;5037827;28;20041;-72
2022/09/04 00:42:07;;;;;;;1.85;1.13;;;15.90;99.90;;;;;;5021255;28;20041;-68
2022/09/04 00:44:39;;;;;;;;;;;15.80;99.90;;;;;;5038469;28;20136;-75
2022/09/04 00:47:25;;;;;;;4.10;0.77;;;16.00;99.90;;;;;;5037118;28;19927;-72
2022/09/04 00:50:05;;;;;;;1.40;0.75;;;15.70;99.90;;;;;;5021104;28;20033;-71
2022/09/04 00:52:56;;;;;;;2.45;1.00;;;15.70;99.90;;;;;;5037610;28;20102;-69
2022/09/04 00:55:59;;;;;;;0.73;0.73;;;15.50;99.90;;;;;;5037410;28;20057;-73
2022/09/04 00:58:37;;;;;;;1.83;0.93;;;15.30;99.90;;;;;;5037672;28;20053;-68
2022/09/04 01:01:04;;;;;;;2.90;0.82;;;15.60;99.90;;;;;;5037215;28;20045;-72
2022/09/04 01:03:58;;;;;;;1.27;0.70;;;15.60;35.80;;;;;;5037560;28;20029;-75
2022/09/04 01:06:55;;;;;;;1.80;1.15;;;15.60;1.00;;;;;;5037094;28;20045;-73
2022/09/04 01:09:42;;;;;;;2.55;1.52;;;15.60;1.00;;;;;;5010366;28;20136;-75
2022/09/04 01:12:16;;;;;;;2.40;0.90;;;15.50;33.20;;;;;;5037081;28;20041;-75
2022/09/04 01:15:07;;;;;;;1.27;0.93;;;15.80;1.00;;;;;;5020625;28;20124;-73
2022/09/04 01:17:40;;;;;;;2.15;0.93;;;15.50;1.00;;;;;;5037191;28;20067;-74
2022/09/04 01:20:50;;;;;;;1.60;0.77;;;15.40;1.00;;;;;;5020423;28;20044;-72
2022/09/04 01:23:31;;;;;;;1.67;0.80;;;15.50;1.00;;;;;;5036974;28;20045;-75
2022/09/04 01:26:08;;;;;;;1.98;1.20;;;15.50;1.00;;;;;;5020258;28;20033;-72
2022/09/04 01:29:12;;;;;;;1.50;1.00;;;15.40;1.00;;;;;;5037099;28;20044;-73
2022/09/04 01:31:57;;;;;;;1.60;0.90;;;15.50;1.00;;;;;;4971855;28;20056;-70
2022/09/04 01:34:58;;;;;;;1.55;1.02;;;15.40;1.00;;;;;;5020430;28;20075;-73
2022/09/04 01:37:46;;;;;;;1.35;0.95;;;15.30;1.00;;;;;;5037794;28;20056;-74
2022/09/04 01:40:39;;;;;;;2.05;1.27;;;15.40;1.00;;;;;;5036490;28;20041;-71
2022/09/04 01:43:10;;;;;;;2.47;1.10;;;15.10;1.00;;;;;;5036395;28;20068;-72
2022/09/04 01:45:51;;;;;;;5.22;1.35;;;15.20;1.00;;;;;;5036809;28;20044;-72
2022/09/04 01:48:25;;;;;;;1.67;1.10;;;15.20;99.90;;;;;;5019917;28;20076;-72
2022/09/04 01:50:57;;;;;;;4.93;1.17;;;15.20;99.90;;;;;;5036861;28;20041;-73
2022/09/04 01:53:29;;;;;;;2.72;1.30;;;15.20;99.90;;;;;;5036941;28;20037;-72
2022/09/04 01:56:07;;;;;;;1.88;1.17;;;15.20;99.90;;;;;;5036131;28;20041;-69
2022/09/04 01:58:54;;;;;;;2.50;1.15;;;15.20;99.90;;;;;;5019695;28;20068;-72
2022/09/04 02:01:37;;;;;;;1.13;1.02;;;15.50;99.90;;;;;;5019323;28;20040;-72
2022/09/04 02:04:20;;;;;;;2.13;1.02;;;15.20;99.90;;;;;;5036282;28;20045;-75
2022/09/04 02:07:10;;;;;;;5.43;1.50;;;15.20;99.90;;;;;;5036112;28;20037;-72
2022/09/04 02:10:02;;;;;;;1.63;1.13;;;15.10;99.90;;;;;;5036002;28;20052;-73
2022/09/04 02:13:09;;;;;;;1.48;1.15;;;15.10;99.90;;;;;;5019895;28;20467;-75
2022/09/04 02:15:50;;;;;;;1.30;0.90;;;15.10;99.90;;;;;;5035870;28;20134;-72
2022/09/04 02:18:31;;;;;;;;;;;15.10;99.90;;;;;;5036449;28;20036;-69
2022/09/04 02:21:22;;;;;;;1.27;1.02;;;15.10;99.90;;;;;;5036283;28;19916;-75
2022/09/04 02:24:01;;;;;;;3.00;1.02;;;15.00;99.90;;;;;;5036065;28;20036;-75
2022/09/04 02:26:33;;;;;;;3.17;1.52;;;15.00;99.90;;;;;;5019497;28;20045;-74
2022/09/04 02:29:07;;;;;;;3.50;1.30;;;14.90;99.90;;;;;;5035737;28;20485;-69
2022/09/04 02:31:48;;;;;;;4.00;1.10;;;14.90;99.90;;;;;;5035789;28;20091;-72
2022/09/04 02:34:14;;;;;;;;;;;14.90;99.90;;;;;;5036319;28;20116;-75
2022/09/04 02:36:47;;;;;;;2.85;1.52;;;14.80;99.90;;;;;;5018963;28;20375;-74
2022/09/04 02:39:59;;;;;;;1.83;1.15;;;14.80;99.90;;;;;;5035724;28;20071;-75
2022/09/04 02:42:48;;;;;;;2.28;1.20;;;14.80;99.90;;;;;;5019174;28;20063;-72
2022/09/04 02:45:38;;;;;;;2.50;1.30;;;14.80;99.90;;;;;;5035628;28;20052;-71
2022/09/04 02:48:13;;;;;;;2.55;1.33;;;14.70;99.90;;;;;;5019269;28;20095;-69
2022/09/04 02:51:30;;;;;;;5.07;1.30;;;14.60;99.90;;;;;;5035593;28;20037;-70
2022/09/04 02:54:20;;;;;;;2.30;1.20;;;14.60;99.90;;;;;;4992131;28;20128;-69
2022/09/04 02:57:08;;;;;;;1.20;0.93;;;14.60;99.90;;;;;;5034916;28;20060;-75
2022/09/04 03:00:26;;;;;;;1.88;1.20;;;14.50;99.90;;;;;;5035706;28;20128;-74
2022/09/04 03:02:57;;;;;;;1.75;1.00;;;14.40;99.90;;;;;;5035015;28;20049;-69
2022/09/04 03:05:40;;;;;;;2.42;1.10;;;14.30;99.90;;;;;;5035377;28;20033;-69
2022/09/04 03:08:45;;;;;;;1.77;1.40;;;14.30;99.90;;;;;;5035242;28;20484;-72
2022/09/04 03:11:29;;;;;;;2.40;1.45;;;14.20;99.90;;;;;;5017729;28;20124;-72
2022/09/04 03:14:06;;;;;;;2.25;1.25;;;14.20;99.90;;;;;;5018753;28;20056;-71
2022/09/04 03:16:49;;;;;;;2.22;1.23;;;14.00;99.90;;;;;;5035250;28;20381;-74
2022/09/04 03:19:30;;;;;;;1.52;0.95;;;14.10;99.90;;;;;;5035432;28;20041;-73
2022/09/04 03:22:12;;;;;;;2.35;1.13;;;14.00;99.90;;;;;;5034964;28;20457;-75
2022/09/04 03:25:03;;;;;;;2.72;1.20;;;14.00;99.90;;;;;;5034978;28;20108;-73
2022/09/04 03:27:31;;;;;;;1.42;1.10;;;13.90;99.90;;;;;;5034950;28;20045;-75
2022/09/04 03:30:12;;;;;;;1.25;1.10;;;13.90;99.90;;;;;;5018411;28;20048;-74
2022/09/04 03:33:02;;;;;;;2.10;1.52;;;13.90;99.90;;;;;;5034997;28;20084;-69
2022/09/04 03:35:58;;;;;;;2.67;1.38;;;13.90;99.90;;;;;;5034865;28;20102;-71
2022/09/04 03:39:01;;;;;;;1.83;1.15;;;13.80;99.90;;;;;;5018855;28;20114;-73
2022/09/04 03:41:55;;;;;;;5.32;1.20;;;13.80;99.90;;;;;;5034936;28;20040;-74
2022/09/04 03:45:17;;;;;;;1.98;1.60;;;13.80;99.90;;;;;;5035520;28;20041;-73
2022/09/04 03:47:55;;;;;;;2.60;1.20;;;13.70;99.90;;;;;;5033260;28;20091;-72
2022/09/04 03:50:20;;;;;;;3.40;1.30;;;13.60;99.90;;;;;;5035044;28;20066;-75
2022/09/04 03:53:01;;;;;;;1.77;1.45;;;13.60;99.90;;;;;;5034693;28;20041;-75
2022/09/04 03:55:56;;;;;;;2.33;1.20;;;13.60;99.90;;;;;;5018269;28;20044;-72
2022/09/04 03:58:37;;;;;;;2.65;1.20;;;13.60;99.90;;;;;;5013100;28;20053;-69
2022/09/04 04:01:22;;;;;;;5.13;1.67;;;13.60;99.90;;;;;;5034442;28;20507;-73
2022/09/04 04:04:06;;;;;;;1.55;1.10;;;13.50;99.90;;;;;;5034610;28;20041;-69
2022/09/04 04:06:32;;;;;;;1.35;1.20;;;13.50;99.90;;;;;;5034990;28;20091;-75
2022/09/04 04:09:11;;;;;;;4.00;1.60;;;13.40;99.90;;;;;;5018086;28;20036;-72
2022/09/04 04:12:05;;;;;;;3.88;1.50;;;13.40;99.90;;;;;;5034883;28;20079;-74
2022/09/04 04:14:50;;;;;;;1.48;1.30;;;13.30;1.00;;;;;;5034548;28;20476;-73
2022/09/04 04:17:34;;;;;;;5.05;1.45;;;13.40;1.00;;;;;;5018040;28;20123;-69
2022/09/04 04:20:26;;;;;;;2.35;1.60;;;13.30;99.90;;;;;;5034478;28;20037;-69
2022/09/04 04:23:16;;;;;;;1.63;0.98;;;13.40;99.90;;;;;;5035333;28;20044;-69
2022/09/04 04:26:21;;;;;;;1.70;1.40;;;13.30;99.90;;;;;;5021710;28;20120;-74
2022/09/04 04:29:24;;;;;;;2.72;1.58;;;13.30;99.90;;;;;;5038045;28;20480;-69
2022/09/04 04:32:12;;;;;;;1.73;1.30;;;13.30;99.90;;;;;;5038015;28;20400;-73
2022/09/04 04:34:40;;;;;;;2.30;1.33;;;13.20;99.90;;;;;;5021627;28;20068;-74
2022/09/04 04:37:15;;;;;;;2.38;1.40;;;13.20;99.90;;;;;;5037857;28;20041;-71
2022/09/04 04:40:03;;;;;;;4.50;1.15;;;13.10;99.90;;;;;;5021248;28;20124;-69
2022/09/04 04:42:52;;;;;;;2.50;2.05;;;13.10;99.90;;;;;;5037749;28;20037;-74
2022/09/04 04:45:50;;;;;;;1.55;1.40;;;13.10;99.90;;;;;;5021265;28;20454;-69
2022/09/04 04:48:35;;;;;;;2.15;1.20;;;13.10;99.90;;;;;;5037902;28;20136;-71
2022/09/04 04:51:17;;;;;;;1.67;1.23;;;13.10;99.90;;;;;;5037509;28;20086;-72
2022/09/04 04:54:12;;;;;;;2.05;1.33;;;13.40;99.90;;;;;;5037388;28;20045;-73
2022/09/04 04:57:00;;;;;;;1.23;0.98;;;13.10;99.90;;;;;;5020984;28;20485;-72
2022/09/04 05:00:10;;;;;;;1.60;1.30;;;13.10;99.90;;;;;;5037650;28;20440;-70
2022/09/04 05:02:59;;;;;;;2.10;1.50;;;13.10;99.90;;;;;;5054087;28;20511;-73
2022/09/04 05:05:45;;;;;;;1.98;1.35;;;13.00;99.90;;;;;;5037361;28;20047;-72
2022/09/04 05:08:46;;;;;;;1.95;1.35;;;13.10;99.90;;;;;;5037395;28;20136;-75
2022/09/04 05:11:34;;;;;;;1.80;1.27;;;13.10;99.90;;;;;;5037174;28;20546;-69
2022/09/04 05:14:34;;;;;;;2.25;1.50;;;13.10;99.90;;;;;;5037250;28;20040;-72
2022/09/04 05:17:18;;;;;;;2.30;1.52;;;13.10;99.90;;;;;;5037287;28;20051;-69
2022/09/04 05:20:21;;;;;;;2.03;1.05;;;13.10;99.90;;;;;;5037207;28;20043;-75
2022/09/04 05:23:10;;;;;;;2.03;1.33;;;13.20;99.90;;;;;;5036747;28;20041;-69
2022/09/04 05:25:39;;;;;;;2.15;1.33;;;13.20;99.90;;;;;;5020931;28;20041;-69
2022/09/04 05:28:17;;;;;;;2.42;1.48;;;13.20;99.90;;;;;;5037044;28;20118;-69
2022/09/04 05:31:03;;;;;;;2.40;1.50;;;13.20;99.90;;;;;;5036791;28;20098;-73
2022/09/04 05:33:41;;;;;;;3.10;1.80;;;13.30;99.90;;;;;;5036417;28;20056;-75
2022/09/04 05:36:23;;;;;;;2.30;1.55;;;13.30;99.90;;;;;;5036662;28;20412;-73
2022/09/04 05:39:22;;;;;;;1.75;1.33;;;13.30;99.90;;;;;;5036716;28;20041;-74
2022/09/04 05:42:03;;;;;;;2.72;1.40;;;13.40;99.90;;;;;;5036791;28;20496;-74
2022/09/04 05:45:06;;;;;;;2.25;1.42;;;13.50;99.90;;;;;;5020423;28;20039;-69
2022/09/04 05:47:59;;;;;;;1.98;1.48;;;13.50;99.90;;;;;;5036793;28;20040;-75
2022/09/04 05:50:34;;;;;;;3.67;1.67;;;13.60;99.90;;;;;;5036703;28;20457;-69
2022/09/04 05:53:27;;;;;;;2.83;1.50;;;13.70;99.90;;;;;;5036560;28;20481;-69
2022/09/04 05:56:35;;;;;;;2.30;1.40;;;13.80;99.90;;;;;;5019970;28;20049;-73
2022/09/04 05:59:30;;;;;;;2.35;1.27;;;13.80;99.90;;;;;;5012281;28;20099;-72
2022/09/04 06:02:16;;;;;;;2.03;1.50;;;13.80;99.90;;;;;;5034862;28;20052;-72
2022/09/04 06:05:03;;;;;;;2.55;1.55;;;14.00;99.90;;;;;;5035943;28;20083;-72
2022/09/04 06:07:43;;;;;;;1.92;1.20;;;14.10;99.90;;;;;;5036234;28;20042;-72
2022/09/04 06:10:27;;;;;;;2.70;1.40;;;14.20;99.90;;;;;;5019732;28;20040;-73
2022/09/04 06:13:14;;;;;;;3.42;1.95;;;14.30;99.90;;;;;;5036073;28;20048;-73
2022/09/04 06:15:52;;;;;;;1.83;1.20;;;14.30;99.90;;;;;;5036596;28;20052;-75
2022/09/04 06:18:43;;;;;;;2.67;1.45;;;14.40;99.90;;;;;;5036078;28;20053;-70
2022/09/04 06:21:15;;;;;;;1.88;1.42;;;14.50;99.90;;;;;;5035905;28;20098;-75
2022/09/04 06:24:03;;;;;;;4.25;1.90;;;14.60;99.90;;;;;;5035724;28;20041;-73
2022/09/04 06:27:06;;;;;;;1.83;1.60;;;14.70;99.90;;;;;;5035936;28;20033;-75
2022/09/04 06:29:47;;;;;;;1.65;1.20;;;14.90;99.90;;;;;;5035741;28;20174;-72
2022/09/04 06:32:42;;;;;;;2.30;1.35;;;14.90;99.90;;;;;;5019239;28;20110;-76
2022/09/04 06:35:30;;;;;;;4.53;1.73;;;15.10;99.90;;;;;;5019623;28;20040;-74
2022/09/04 06:38:31;;;;;;;3.20;1.80;;;15.40;99.90;;;;;;5019164;28;20056;-75
2022/09/04 06:41:34;;;;;;;2.95;1.70;;;15.30;99.90;;;;;;5035627;28;20102;-75
2022/09/04 06:44:12;;;;;;;3.05;1.50;;;15.40;87.80;;;;;;5035588;28;20515;-75
2022/09/04 06:46:59;;;;;;;3.90;1.80;;;15.60;1.00;;;;;;5035135;28;20053;-74
2022/09/04 06:49:39;;;;;;;2.40;1.48;;;15.80;1.00;;;;;;5035615;28;20459;-76
2022/09/04 06:52:23;;;;;;;2.47;1.45;;;15.90;99.90;;;;;;5035317;28;20412;-69
2022/09/04 06:55:13;;;;;;;5.70;1.98;;;16.00;4.30;;;;;;5035144;28;20048;-73
2022/09/04 06:58:10;;;;;;;5.35;1.83;;;16.10;99.90;;;;;;5053076;28;20492;-74
2022/09/04 07:00:42;;;;;;;2.55;1.48;;;;;;;;;;5018902;28;20135;-73
2022/09/04 07:03:18;;;;;;;1.42;1.30;;;;;;;;;;5018611;28;20082;-72
2022/09/04 07:06:07;;;;;;;2.65;1.65;;;16.50;99.90;;;;;;5018409;28;20036;-75
2022/09/04 07:09:07;;;;;;;4.57;1.67;;;16.70;1.00;;;;;;5034699;28;20048;-74
2022/09/04 07:11:57;;;;;;;4.82;2.20;;;16.90;1.00;;;;;;5018313;28;20091;-71
2022/09/04 07:14:54;;;;;;;2.45;1.60;;;16.90;1.00;;;;;;5034824;28;20083;-71
2022/09/04 07:17:46;;;;;;;2.63;1.40;;;17.10;1.00;;;;;;5035021;28;20497;-73
2022/09/04 07:20:30;;;;;;;1.40;1.20;;;17.30;1.00;;;;;;5018325;28;20045;-70
2022/09/04 07:23:15;;;;;;;2.63;1.42;;;17.30;1.00;;;;;;5034769;28;20041;-73
2022/09/04 07:25:56;;;;;;;2.58;1.63;;;17.40;1.00;;;;;;5034713;28;20037;-68
2022/09/04 07:28:49;;;;;;;1.67;1.27;;;17.50;1.00;;;;;;5034963;28;20119;-72
2022/09/04 07:31:23;;;;;;;2.33;1.42;;;17.70;1.00;;;;;;5034716;28;20041;-74
2022/09/04 07:34:24;;;;;;;2.45;1.58;;;17.80;1.00;;;;;;5035055;28;20485;-72
2022/09/04 07:36:58;;;;;;;3.30;1.70;;;17.90;1.00;;;;;;5003913;28;20137;-72
2022/09/04 07:39:36;;;;;;;3.15;2.03;;;18.00;1.00;;;;;;5018413;28;20103;-74
2022/09/04 07:42:05;;;;;;;3.70;1.90;;;18.10;1.00;;;;;;5018213;28;20068;-74
2022/09/04 07:44:40;;;;;;;2.50;1.60;;;18.10;1.00;;;;;;5035745;28;20043;-75
2022/09/04 07:47:34;;;;;;;2.13;1.42;;;18.30;1.00;;;;;;5035464;28;20484;-72
2022/09/04 07:50:11;;;;;;;3.40;1.55;;;18.40;1.00;;;;;;5015762;28;20049;-71
2022/09/04 07:52:59;;;;;;;1.60;1.30;;;18.40;1.00;;;;;;5035207;28;20557;-77
2022/09/04 07:55:41;;;;;;;3.40;1.70;;;;;;;;;;5035086;28;20546;-77
2022/09/04 07:58:30;;;;;;;3.03;1.52;;;18.70;99.90;;;;;;5019263;28;20049;-72
2022/09/04 08:01:15;;;;;;;2.67;1.70;;;18.70;1.00;;;;;;5039121;28;20439;-72
2022/09/04 08:04:10;;;;;;;2.30;1.58;;;18.90;1.00;;;;;;5038459;28;20040;-74
2022/09/04 08:06:54;;;;;;;1.73;1.52;;;19.00;1.00;;;;;;5022217;28;20037;-74
2022/09/04 08:09:47;;;;;;;5.10;2.53;;;19.20;1.00;;;;;;5038871;28;20426;-73
2022/09/04 08:12:47;;;;;;;2.90;1.58;;;19.30;1.00;;;;;;5038619;28;20076;-71
2022/09/04 08:15:18;;;;;;;2.25;1.60;;;19.40;1.00;;;;;;5038470;28;20047;-73
2022/09/04 08:18:18;;;;;;;2.00;1.40;;;19.50;1.00;;;;;;5038479;28;20115;-77
2022/09/04 08:20:50;;;;;;;4.07;1.77;;;19.50;1.00;;;;;;5035436;28;20061;-76
2022/09/04 08:24:00;;;;;;;2.08;1.67;;;19.70;1.00;;;;;;5021547;28;20041;-72
2022/09/04 08:27:01;;;;;;;2.42;1.65;;;19.70;1.00;;;;;;5037925;28;20044;-72
2022/09/04 08:30:03;;;;;;;2.65;1.38;;;19.90;1.00;;;;;;5021504;28;20052;-73
2022/09/04 08:33:00;;;;;;;1.90;1.40;;;20.00;1.00;;;;;;5021677;28;20075;-72
2022/09/04 08:36:01;;;;;;;1.88;1.40;;;20.00;1.00;;;;;;5037803;28;20041;-72
2022/09/04 08:38:54;;;;;;;2.03;1.17;;;20.10;1.00;;;;;;4997098;28;20098;-77
2022/09/04 08:41:45;;;;;;;3.38;1.73;;;20.20;1.00;;;;;;5038060;28;20488;-70
2022/09/04 08:44:29;;;;;;;1.38;1.23;;;20.30;1.00;;;;;;5021050;28;20049;-72
2022/09/04 08:47:36;;;;;;;2.60;1.67;;;20.60;36.00;;;;;;5021174;28;20178;-79
2022/09/04 08:50:40;;;;;;;2.85;1.67;;;20.80;30.70;;;;;;5037479;28;20451;-74
2022/09/04 08:53:22;;;;;;;2.40;1.35;;;;;;;;;;5037480;28;20060;-75
2022/09/04 08:55:57;;;;;;;1.52;1.30;;;20.80;99.90;;;;;;5037698;28;20546;-72
2022/09/04 08:58:50;;;;;;;3.63;1.42;;;20.80;99.90;;;;;;5037448;28;20060;-74
2022/09/04 09:01:25;;;;;;;2.28;1.35;;;20.80;51.10;;;;;;5021098;28;20049;-70
2022/09/04 09:04:28;;;;;;;2.00;1.40;;;20.90;1.00;;;;;;5037246;28;20420;-79
2022/09/04 09:07:12;;;;;;;3.65;1.20;;;21.00;1.00;;;;;;5020599;28;20256;-73
2022/09/04 09:09:44;;;;;;;1.55;1.30;;;21.10;1.00;;;;;;5020494;28;20076;-71
2022/09/04 09:13:03;;;;;;;1.90;1.30;;;21.10;1.00;;;;;;5020692;28;20037;-75
2022/09/04 09:15:59;;;;;;;2.47;1.50;;;21.20;1.00;;;;;;4967413;28;20062;-76
2022/09/04 09:18:24;;;;;;;2.33;1.23;;;21.40;1.00;;;;;;5036978;28;20106;-75
2022/09/04 09:21:09;;;;;;;2.28;1.30;;;21.50;99.90;;;;;;5037314;28;20041;-77
2022/09/04 09:23:43;;;;;;;1.77;1.40;;;21.60;99.90;;;;;;5020206;28;20106;-74
2022/09/04 09:26:29;;;;;;;1.85;1.40;;;;;;;;;;5037098;28;20488;-73
2022/09/04 09:29:33;;;;;;;1.15;1.05;;;21.80;1.00;;;;;;5036795;28;20389;-75
2022/09/04 09:32:18;;;;;;;1.83;1.23;;;21.80;1.00;;;;;;5020526;28;20052;-73
2022/09/04 09:34:46;;;;;;;2.72;1.52;;;21.90;99.90;;;;;;5020229;28;20045;-79
2022/09/04 09:37:24;;;;;;;3.65;1.55;;;22.10;1.00;;;;;;5020298;28;20045;-81
2022/09/04 09:40:04;;;;;;;2.67;1.55;;;;;;;;;;5036579;28;20041;-76
2022/09/04 09:42:39;;;;;;;3.30;1.42;;;22.40;99.90;;;;;;5019959;28;20048;-79
2022/09/04 09:45:10;;;;;;;3.65;1.40;;;22.30;99.90;;;;;;5042280;28;20052;-79
2022/09/04 09:47:44;;;;;;;1.42;1.15;;;22.50;99.90;;;;;;5020049;28;20056;-74
2022/09/04 09:50:20;;;;;;;1.52;1.10;;;22.40;99.90;;;;;;5042647;28;20043;-75
2022/09/04 09:53:17;;;;;;;1.80;1.35;;;22.30;99.90;;;;;;5044457;28;20037;-75
2022/09/04 09:55:43;;;;;;;1.50;1.20;;;;;;;;;;5041351;28;20376;-79
2022/09/04 09:58:28;;;;;;;2.72;1.33;;;;;;;;;;5038055;28;20049;-81
2022/09/04 10:01:20;;;;;;;2.50;1.60;;;22.70;1.00;;;;;;5036480;28;20121;-81
2022/09/04 10:04:10;;;;;;;1.60;1.20;;;22.80;1.00;;;;;;5037183;28;20037;-81
2022/09/04 10:07:01;;;;;;;1.85;1.20;;;22.80;1.00;;;;;;5019765;28;20090;-78
2022/09/04 10:09:38;;;;;;;2.22;1.38;;;22.80;1.00;;;;;;5037668;28;20045;-77
2022/09/04 10:12:29;;;;;;;2.22;1.40;;;22.80;1.00;;;;;;5020541;28;20045;-76
2022/09/04 10:15:21;;;;;;;1.33;1.20;;;22.90;1.00;;;;;;5037431;28;20484;-76
2022/09/04 10:18:08;;;;;;;1.33;0.90;;;23.10;1.00;;;;;;5001117;28;20049;-81
2022/09/04 10:21:19;;;;;;;2.03;1.15;;;23.30;1.00;;;;;;5021078;28;20538;-80
2022/09/04 10:23:57;;;;;;;1.30;1.20;;;23.40;1.00;;;;;;5037260;28;20091;-81
2022/09/04 10:26:23;;;;;;;1.88;1.20;;;23.60;1.00;;;;;;5036955;28;20044;-81
2022/09/04 10:29:18;;;;;;;2.10;1.17;;;23.70;1.00;;;;;;5037733;28;20033;-79
2022/09/04 10:32:15;;;;;;;1.00;0.90;;;23.80;1.00;;;;;;5035898;28;20112;-82
2022/09/04 10:35:03;;;;;;;2.03;1.33;;;24.00;1.00;;;;;;5035929;28;20053;-82
2022/09/04 10:37:55;;;;;;;1.63;1.08;;;23.90;1.00;;;;;;5019252;28;20037;-81
2022/09/04 10:40:47;;;;;;;1.75;0.98;;;23.80;1.00;;;;;;5035728;28;20037;-81
2022/09/04 10:43:28;;;;;;;1.40;1.08;;;23.90;1.00;;;;;;5035792;28;20063;-78
2022/09/04 10:46:26;;;;;;;1.33;0.80;;;23.90;1.00;;;;;;5019159;28;20417;-78
2022/09/04 10:49:07;;;;;;;1.25;1.10;;;24.00;1.00;;;;;;5004677;28;20485;-77
2022/09/04 10:51:43;;;;;;;1.52;0.90;;;24.00;1.00;;;;;;5019382;28;20036;-77
2022/09/04 10:54:38;;;;;;;1.92;1.10;;;24.00;1.00;;;;;;5019221;28;20041;-81
2022/09/04 10:57:17;;;;;;;1.80;1.10;;;24.10;1.00;;;;;;5018756;28;20037;-82
2022/09/04 11:00:05;;;;;;;3.58;1.13;;;24.10;1.00;;;;;;5019050;28;20151;-81
2022/09/04 11:02:52;;;;;;;2.45;1.30;;;24.30;1.00;;;;;;5035377;28;20047;-81
2022/09/04 11:05:23;;;;;;;2.42;1.30;;;24.40;1.00;;;;;;5019120;28;20595;-81
2022/09/04 11:08:08;;;;;;;2.60;1.00;;;24.40;1.00;;;;;;5019000;28;20544;-80
2022/09/04 11:10:47;;;;;;;1.52;1.10;;;24.40;1.00;;;;;;5019111;28;20036;-81
2022/09/04 11:13:21;;;;;;;1.10;0.80;;;24.50;1.00;;;;;;5019043;28;20041;-80
2022/09/04 11:15:50;;;;;;;1.77;1.17;;;24.50;1.00;;;;;;5035438;28;20131;-79
2022/09/04 11:18:47;;;;;;;1.30;0.77;;;24.50;1.00;;;;;;5018707;28;20043;-81
2022/09/04 11:21:32;;;;;;;2.72;0.95;;;24.50;1.00;;;;;;5018898;28;20560;-80
2022/09/04 11:24:36;;;;;;;1.45;1.13;;;24.50;1.00;;;;;;5035051;28;20099;-82
2022/09/04 11:27:23;;;;;;;1.25;0.90;;;24.60;1.00;;;;;;5034894;28;20409;-81
2022/09/04 11:29:51;;;;;;;0.98;0.95;;;24.70;1.00;;;;;;5018589;28;20175;-77
2022/09/04 11:32:51;;;;;;;2.00;1.13;;;24.80;1.00;;;;;;5036677;28;20064;-75
2022/09/04 11:35:20;;;;;;;1.13;0.90;;;24.60;1.00;;;;;;5039355;28;20084;-80
2022/09/04 11:38:19;;;;;;;1.63;1.23;;;24.70;1.00;;;;;;5038779;28;20642;-78
2022/09/04 11:41:00;;;;;;;1.98;1.23;;;24.70;1.00;;;;;;5039454;28;20044;-78
2022/09/04 11:43:35;;;;;;;1.00;0.80;;;24.90;1.00;;;;;;5038784;28;20072;-74
2022/09/04 11:46:38;;;;;;;2.78;0.98;;;24.90;1.00;;;;;;5022200;28;20051;-77
2022/09/04 11:49:24;;;;;;;1.52;1.00;;;25.00;1.00;;;;;;5038806;28;20098;-71
2022/09/04 11:52:19;;;;;;;2.10;0.90;;;25.10;1.00;;;;;;5039000;28;20044;-76
2022/09/04 11:55:19;;;;;;;2.22;1.08;;;25.20;1.00;;;;;;5038685;28;20080;-77
2022/09/04 11:58:01;;;;;;;2.17;0.88;;;25.20;1.00;;;;;;5022081;28;20404;-74
2022/09/04 12:00:41;;;;;;;1.40;0.93;;;25.30;1.00;;;;;;5038895;28;20057;-78
2022/09/04 12:03:39;;;;;;;1.40;0.82;;;25.40;1.00;;;;;;5038660;28;20037;-78
2022/09/04 12:06:21;;;;;;;1.75;1.10;;;25.40;1.00;;;;;;5021928;28;20057;-78
2022/09/04 12:09:24;;;;;;;2.85;1.10;;;25.50;1.00;;;;;;5022421;28;20036;-79
2022/09/04 12:12:15;;;;;;;1.05;0.77;;;25.50;1.00;;;;;;5039371;28;20033;-78
2022/09/04 12:15:02;;;;;;;1.55;1.23;;;25.60;1.00;;;;;;5039521;28;20041;-79
2022/09/04 12:17:55;;;;;;;1.55;0.90;;;25.70;1.00;;;;;;5021975;28;20049;-78
2022/09/04 12:20:39;;;;;;;1.60;1.10;;;25.70;1.00;;;;;;5039177;28;20051;-73
2022/09/04 12:23:11;;;;;;;1.60;1.00;;;25.80;1.00;;;;;;5038795;28;20091;-73
2022/09/04 12:25:46;;;;;;;1.60;1.08;;;26.00;54.10;;;;;;5038481;28;20037;-75
2022/09/04 12:28:36;;;;;;;1.63;1.17;;;25.90;1.00;;;;;;5021851;28;20037;-77
2022/09/04 12:31:02;;;;;;;1.90;1.10;;;25.80;1.00;;;;;;5021562;28;20075;-83
2022/09/04 12:34:00;;;;;;;3.22;1.20;;;25.80;1.00;;;;;;5037989;28;20445;-75
2022/09/04 12:36:58;;;;;;;3.13;0.80;;;25.80;1.00;;;;;;5021746;28;20041;-77
2022/09/04 12:39:37;;;;;;;2.08;0.90;;;26.00;1.00;;;;;;4999616;28;20052;-74
2022/09/04 12:42:36;;;;;;;1.33;0.70;;;26.20;42.20;;;;;;5037790;28;20040;-77
2022/09/04 12:45:29;;;;;;;1.13;0.88;;;26.00;56.80;;;;;;5020776;28;20045;-77
2022/09/04 12:48:22;;;;;;;1.00;0.80;;;26.10;70.10;;;;;;5021039;28;20404;-83
2022/09/04 12:50:59;;;;;;;1.60;1.10;;;26.20;67.30;;;;;;5021367;28;20506;-73
2022/09/04 12:53:38;;;;;;;1.33;0.85;;;26.30;99.90;;;;;;5037858;28;20041;-74
2022/09/04 12:56:04;;;;;;;1.33;0.88;;;26.10;56.50;;;;;;5037527;28;20059;-73
2022/09/04 12:59:06;;;;;;;0.70;0.65;;;26.10;67.60;;;;;;5037256;28;20056;-73
2022/09/04 13:02:03;;;;;;;2.75;1.10;;;26.20;23.70;;;;;;5017354;28;20048;-73
2022/09/04 13:04:37;;;;;;;3.17;0.90;;;26.20;34.90;;;;;;5020976;28;20528;-75
2022/09/04 13:07:29;;;;;;;1.65;1.02;;;26.20;86.40;;;;;;5037279;28;20039;-73
2022/09/04 13:10:18;;;;;;;1.10;0.80;;;26.20;30.70;;;;;;5020696;28;20029;-74
2022/09/04 13:12:51;;;;;;;0.70;0.70;;;26.20;28.00;;;;;;5037144;28;20108;-74
2022/09/04 13:15:27;;;;;;;1.05;0.82;;;26.10;80.80;;;;;;5037888;28;20400;-83
2022/09/04 13:17:59;;;;;;;1.70;1.02;;;26.20;74.70;;;;;;5020598;28;20098;-75
2022/09/04 13:20:34;;;;;;;3.55;1.25;;;25.90;30.20;;;;;;5020637;28;20045;-77
2022/09/04 13:23:22;;;;;;;1.42;0.90;;;25.90;28.80;;;;;;5037005;28;20049;-76
2022/09/04 13:26:08;;;;;;;1.02;0.80;;;25.90;72.50;;;;;;5020914;28;20049;-80
2022/09/04 13:28:59;;;;;;;1.10;0.75;;;26.10;22.40;;;;;;5020872;28;20128;-76
2022/09/04 13:31:34;;;;;;;0.82;0.70;;;26.10;24.60;;;;;;5037426;28;20041;-77
2022/09/04 13:34:29;;;;;;;1.60;1.30;;;26.30;91.70;;;;;;5037761;28;20450;-75
2022/09/04 13:37:19;;;;;;;1.25;0.90;;;26.50;1.00;;;;;;5020174;28;20041;-76
2022/09/04 13:40:04;;;;;;;1.10;0.75;;;26.50;1.00;;;;;;5021042;28;20045;-80
2022/09/04 13:42:59;;;;;;;1.23;1.00;;;26.50;1.00;;;;;;5036600;28;20098;-80
2022/09/04 13:45:48;;;;;;;1.55;0.95;;;26.60;1.00;;;;;;5020202;28;20048;-77
2022/09/04 13:48:46;;;;;;;2.15;1.23;;;26.50;1.00;;;;;;5037113;28;20045;-78
2022/09/04 13:51:21;;;;;;;2.40;1.10;;;26.40;1.00;;;;;;5019781;28;20048;-77
2022/09/04 13:54:19;;;;;;;1.83;1.20;;;26.30;1.00;;;;;;5020290;28;20029;-76
2022/09/04 13:56:57;;;;;;;1.23;0.80;;;26.30;1.00;;;;;;5035370;28;20049;-72
2022/09/04 13:59:23;;;;;;;1.52;0.90;;;26.20;1.00;;;;;;5037669;28;20049;-79
2022/09/04 14:01:53;;;;;;;1.30;0.90;;;26.10;1.00;;;;;;5019723;28;20083;-76
2022/09/04 14:04:42;;;;;;;;;;;26.20;1.00;;;;;;5020525;28;20076;-77
2022/09/04 14:07:17;;;;;;;1.80;1.30;;;26.00;1.00;;;;;;5019715;28;20462;-77
2022/09/04 14:09:46;;;;;;;1.10;0.82;;;26.10;1.00;;;;;;5036310;28;20040;-75
2022/09/04 14:12:21;;;;;;;1.38;0.90;;;26.00;1.00;;;;;;5036450;28;20475;-72
2022/09/04 14:15:06;;;;;;;1.15;0.90;;;26.10;1.00;;;;;;5035760;28;20044;-77
2022/09/04 14:18:22;;;;;;;1.20;0.90;;;25.90;1.00;;;;;;5035876;28;20045;-77
2022/09/04 14:21:04;;;;;;;1.70;1.30;;;26.00;1.00;;;;;;5002937;28;20056;-78
2022/09/04 14:24:14;;;;;;;1.60;1.00;;;26.10;1.00;;;;;;5035805;28;20041;-72
2022/09/04 14:26:51;;;;;;;2.53;1.80;;;26.20;1.00;;;;;;5019310;28;20086;-73
2022/09/04 14:29:20;;;;;;;2.15;1.10;;;26.20;1.00;;;;;;5035689;28;20045;-78
2022/09/04 14:32:10;;;;;;;6.47;1.30;;;26.20;1.00;;;;;;5019507;28;20484;-77
2022/09/04 14:34:54;;;;;;;2.03;0.90;;;26.20;1.00;;;;;;5019291;28;20049;-73